sensor_id;sensor_type;location;lat;lon;timestamp;P1;durP1;ratioP1;P2;durP2;ratioP2
40433;SDS011;26146;51.114;5.654;2022-08-14T00:01:30;7.25;;;3.15;;
40433;SDS011;26146;51.114;5.654;2022-08-14T00:05:31;6.97;;;3.10;;
40433;SDS011;26146;51.114;5.654;2022-08-14T00:09:32;7.07;;;3.20;;
40433;SDS011;26146;51.114;5.654;2022-08-14T00:13:33;7.55;;;3.10;;
40433;SDS011;26146;51.114;5.654;2022-08-14T00:17:37;6.85;;;3.13;;
40433;SDS011;26146;51.114;5.654;2022-08-14T00:21:38;9.18;;;3.33;;
40433;SDS011;26146;51.114;5.654;2022-08-14T00:25:39;6.90;;;3.20;;
40433;SDS011;26146;51.114;5.654;2022-08-14T00:29:41;6.80;;;3.10;;
40433;SDS011;26146;51.114;5.654;2022-08-14T00:33:43;7.85;;;3.35;;
40433;SDS011;26146;51.114;5.654;2022-08-14T00:37:44;8.70;;;3.72;;
40433;SDS011;26146;51.114;5.654;2022-08-14T00:41:45;10.45;;;4.05;;
40433;SDS011;26146;51.114;5.654;2022-08-14T00:45:47;8.15;;;4.20;;
40433;SDS011;26146;51.114;5.654;2022-08-14T00:49:48;8.00;;;3.92;;
40433;SDS011;26146;51.114;5.654;2022-08-14T00:53:49;9.18;;;3.88;;
40433;SDS011;26146;51.114;5.654;2022-08-14T00:57:50;8.13;;;4.00;;
40433;SDS011;26146;51.114;5.654;2022-08-14T01:02:10;9.02;;;4.22;;
40433;SDS011;26146;51.114;5.654;2022-08-14T01:06:14;8.93;;;4.35;;
40433;SDS011;26146;51.114;5.654;2022-08-14T01:10:16;10.00;;;4.35;;
40433;SDS011;26146;51.114;5.654;2022-08-14T01:14:20;7.72;;;3.67;;
40433;SDS011;26146;51.114;5.654;2022-08-14T01:18:23;7.75;;;3.78;;
40433;SDS011;26146;51.114;5.654;2022-08-14T01:22:45;8.70;;;3.57;;
40433;SDS011;26146;51.114;5.654;2022-08-14T01:26:46;9.88;;;3.53;;
40433;SDS011;26146;51.114;5.654;2022-08-14T01:30:47;8.88;;;3.35;;
40433;SDS011;26146;51.114;5.654;2022-08-14T01:34:49;7.18;;;3.35;;
40433;SDS011;26146;51.114;5.654;2022-08-14T01:38:54;8.40;;;3.47;;
40433;SDS011;26146;51.114;5.654;2022-08-14T01:42:59;8.20;;;3.60;;
40433;SDS011;26146;51.114;5.654;2022-08-14T01:47:09;7.53;;;3.35;;
40433;SDS011;26146;51.114;5.654;2022-08-14T01:51:14;6.53;;;3.40;;
40433;SDS011;26146;51.114;5.654;2022-08-14T01:55:16;7.80;;;3.25;;
40433;SDS011;26146;51.114;5.654;2022-08-14T01:59:19;8.77;;;3.60;;
40433;SDS011;26146;51.114;5.654;2022-08-14T02:03:29;8.80;;;3.10;;
40433;SDS011;26146;51.114;5.654;2022-08-14T02:07:39;7.28;;;3.15;;
40433;SDS011;26146;51.114;5.654;2022-08-14T02:11:43;7.97;;;3.58;;
40433;SDS011;26146;51.114;5.654;2022-08-14T02:15:44;7.32;;;2.95;;
40433;SDS011;26146;51.114;5.654;2022-08-14T02:19:45;7.38;;;3.00;;
40433;SDS011;26146;51.114;5.654;2022-08-14T02:23:50;6.97;;;2.95;;
40433;SDS011;26146;51.114;5.654;2022-08-14T02:27:53;6.18;;;2.90;;
40433;SDS011;26146;51.114;5.654;2022-08-14T02:31:56;7.80;;;2.63;;
40433;SDS011;26146;51.114;5.654;2022-08-14T02:35:58;6.88;;;2.75;;
40433;SDS011;26146;51.114;5.654;2022-08-14T02:39:59;8.32;;;2.58;;
40433;SDS011;26146;51.114;5.654;2022-08-14T02:44:02;8.82;;;2.72;;
40433;SDS011;26146;51.114;5.654;2022-08-14T02:48:05;7.25;;;2.65;;
40433;SDS011;26146;51.114;5.654;2022-08-14T02:52:07;7.05;;;2.40;;
40433;SDS011;26146;51.114;5.654;2022-08-14T02:56:10;9.60;;;3.05;;
40433;SDS011;26146;51.114;5.654;2022-08-14T03:00:17;8.60;;;2.85;;
40433;SDS011;26146;51.114;5.654;2022-08-14T03:04:18;7.28;;;2.80;;
40433;SDS011;26146;51.114;5.654;2022-08-14T03:08:19;5.70;;;2.40;;
40433;SDS011;26146;51.114;5.654;2022-08-14T03:12:21;8.30;;;3.15;;
40433;SDS011;26146;51.114;5.654;2022-08-14T03:16:24;7.93;;;3.20;;
40433;SDS011;26146;51.114;5.654;2022-08-14T03:20:26;6.80;;;3.33;;
40433;SDS011;26146;51.114;5.654;2022-08-14T03:24:29;8.23;;;3.40;;
40433;SDS011;26146;51.114;5.654;2022-08-14T03:28:30;6.78;;;3.00;;
40433;SDS011;26146;51.114;5.654;2022-08-14T03:32:31;7.85;;;3.15;;
40433;SDS011;26146;51.114;5.654;2022-08-14T03:36:32;7.15;;;3.00;;
40433;SDS011;26146;51.114;5.654;2022-08-14T03:40:33;7.07;;;2.85;;
40433;SDS011;26146;51.114;5.654;2022-08-14T03:44:37;7.00;;;3.03;;
40433;SDS011;26146;51.114;5.654;2022-08-14T03:48:40;8.77;;;2.90;;
40433;SDS011;26146;51.114;5.654;2022-08-14T03:52:42;9.10;;;3.00;;
40433;SDS011;26146;51.114;5.654;2022-08-14T03:56:45;6.80;;;2.90;;
40433;SDS011;26146;51.114;5.654;2022-08-14T04:00:46;7.65;;;3.40;;
40433;SDS011;26146;51.114;5.654;2022-08-14T04:04:47;9.80;;;3.78;;
40433;SDS011;26146;51.114;5.654;2022-08-14T04:08:48;8.02;;;3.45;;
40433;SDS011;26146;51.114;5.654;2022-08-14T04:12:49;6.82;;;3.20;;
40433;SDS011;26146;51.114;5.654;2022-08-14T04:16:50;8.60;;;3.35;;
40433;SDS011;26146;51.114;5.654;2022-08-14T04:20:51;8.13;;;3.83;;
40433;SDS011;26146;51.114;5.654;2022-08-14T04:24:52;7.43;;;3.60;;
40433;SDS011;26146;51.114;5.654;2022-08-14T04:28:53;8.50;;;3.53;;
40433;SDS011;26146;51.114;5.654;2022-08-14T04:32:55;9.80;;;3.47;;
40433;SDS011;26146;51.114;5.654;2022-08-14T04:36:57;7.43;;;2.97;;
40433;SDS011;26146;51.114;5.654;2022-08-14T04:41:17;7.47;;;3.40;;
40433;SDS011;26146;51.114;5.654;2022-08-14T04:45:52;8.07;;;3.30;;
40433;SDS011;26146;51.114;5.654;2022-08-14T04:49:53;9.35;;;3.40;;
40433;SDS011;26146;51.114;5.654;2022-08-14T04:53:58;7.32;;;3.20;;
40433;SDS011;26146;51.114;5.654;2022-08-14T04:58:02;8.88;;;3.30;;
40433;SDS011;26146;51.114;5.654;2022-08-14T05:02:04;9.27;;;3.20;;
40433;SDS011;26146;51.114;5.654;2022-08-14T05:06:06;11.25;;;3.60;;
40433;SDS011;26146;51.114;5.654;2022-08-14T05:10:10;10.48;;;3.25;;
40433;SDS011;26146;51.114;5.654;2022-08-14T05:14:12;7.57;;;3.28;;
40433;SDS011;26146;51.114;5.654;2022-08-14T05:18:14;8.30;;;3.10;;
40433;SDS011;26146;51.114;5.654;2022-08-14T05:22:17;9.57;;;3.58;;
40433;SDS011;26146;51.114;5.654;2022-08-14T05:26:19;8.05;;;3.50;;
40433;SDS011;26146;51.114;5.654;2022-08-14T05:30:20;7.00;;;2.90;;
40433;SDS011;26146;51.114;5.654;2022-08-14T05:34:21;7.20;;;3.13;;
40433;SDS011;26146;51.114;5.654;2022-08-14T05:38:23;8.30;;;3.35;;
40433;SDS011;26146;51.114;5.654;2022-08-14T05:42:24;8.40;;;3.35;;
40433;SDS011;26146;51.114;5.654;2022-08-14T05:46:25;6.72;;;3.30;;
40433;SDS011;26146;51.114;5.654;2022-08-14T05:50:26;7.85;;;3.20;;
40433;SDS011;26146;51.114;5.654;2022-08-14T05:54:29;10.47;;;3.50;;
40433;SDS011;26146;51.114;5.654;2022-08-14T05:58:30;7.30;;;2.97;;
40433;SDS011;26146;51.114;5.654;2022-08-14T06:02:31;7.63;;;3.10;;
40433;SDS011;26146;51.114;5.654;2022-08-14T06:06:32;7.82;;;3.20;;
40433;SDS011;26146;51.114;5.654;2022-08-14T06:10:35;8.00;;;3.13;;
40433;SDS011;26146;51.114;5.654;2022-08-14T06:14:36;7.35;;;3.10;;
40433;SDS011;26146;51.114;5.654;2022-08-14T06:18:37;7.65;;;2.90;;
40433;SDS011;26146;51.114;5.654;2022-08-14T06:22:39;8.30;;;3.10;;
40433;SDS011;26146;51.114;5.654;2022-08-14T06:26:40;8.05;;;3.35;;
40433;SDS011;26146;51.114;5.654;2022-08-14T06:30:41;8.75;;;2.80;;
40433;SDS011;26146;51.114;5.654;2022-08-14T06:34:42;6.70;;;2.72;;
40433;SDS011;26146;51.114;5.654;2022-08-14T06:38:43;7.75;;;3.50;;
40433;SDS011;26146;51.114;5.654;2022-08-14T06:42:44;7.88;;;2.88;;
40433;SDS011;26146;51.114;5.654;2022-08-14T06:46:48;7.60;;;3.13;;
40433;SDS011;26146;51.114;5.654;2022-08-14T06:50:49;8.63;;;3.22;;
40433;SDS011;26146;51.114;5.654;2022-08-14T06:54:52;7.60;;;3.33;;
40433;SDS011;26146;51.114;5.654;2022-08-14T06:58:55;11.50;;;3.20;;
40433;SDS011;26146;51.114;5.654;2022-08-14T07:02:56;7.97;;;2.90;;
40433;SDS011;26146;51.114;5.654;2022-08-14T07:07:16;6.38;;;3.00;;
40433;SDS011;26146;51.114;5.654;2022-08-14T07:11:17;7.80;;;3.03;;
40433;SDS011;26146;51.114;5.654;2022-08-14T07:15:21;8.50;;;3.53;;
40433;SDS011;26146;51.114;5.654;2022-08-14T07:19:22;7.43;;;3.03;;
40433;SDS011;26146;51.114;5.654;2022-08-14T07:23:23;7.82;;;3.00;;
40433;SDS011;26146;51.114;5.654;2022-08-14T07:27:25;7.18;;;2.70;;
40433;SDS011;26146;51.114;5.654;2022-08-14T07:31:25;7.63;;;2.92;;
40433;SDS011;26146;51.114;5.654;2022-08-14T07:35:26;7.05;;;2.50;;
40433;SDS011;26146;51.114;5.654;2022-08-14T07:39:27;6.85;;;2.85;;
40433;SDS011;26146;51.114;5.654;2022-08-14T07:43:28;9.82;;;3.08;;
40433;SDS011;26146;51.114;5.654;2022-08-14T07:47:29;7.20;;;2.88;;
40433;SDS011;26146;51.114;5.654;2022-08-14T07:51:30;7.60;;;2.50;;
40433;SDS011;26146;51.114;5.654;2022-08-14T07:55:31;6.43;;;2.60;;
40433;SDS011;26146;51.114;5.654;2022-08-14T07:59:33;7.63;;;2.55;;
40433;SDS011;26146;51.114;5.654;2022-08-14T08:03:34;6.28;;;2.67;;
40433;SDS011;26146;51.114;5.654;2022-08-14T08:07:38;6.22;;;2.60;;
40433;SDS011;26146;51.114;5.654;2022-08-14T08:11:42;6.10;;;2.40;;
40433;SDS011;26146;51.114;5.654;2022-08-14T08:15:49;6.85;;;2.70;;
40433;SDS011;26146;51.114;5.654;2022-08-14T08:19:53;6.10;;;2.75;;
40433;SDS011;26146;51.114;5.654;2022-08-14T08:23:53;6.82;;;2.55;;
40433;SDS011;26146;51.114;5.654;2022-08-14T08:28:01;6.22;;;2.75;;
40433;SDS011;26146;51.114;5.654;2022-08-14T08:32:08;5.60;;;2.33;;
40433;SDS011;26146;51.114;5.654;2022-08-14T08:36:09;7.45;;;2.45;;
40433;SDS011;26146;51.114;5.654;2022-08-14T08:40:27;5.82;;;2.45;;
40433;SDS011;26146;51.114;5.654;2022-08-14T08:44:35;6.97;;;2.50;;
40433;SDS011;26146;51.114;5.654;2022-08-14T08:48:43;6.50;;;2.65;;
40433;SDS011;26146;51.114;5.654;2022-08-14T08:52:52;7.60;;;2.25;;
40433;SDS011;26146;51.114;5.654;2022-08-14T08:56:56;7.85;;;2.50;;
40433;SDS011;26146;51.114;5.654;2022-08-14T09:00:59;6.32;;;2.63;;
40433;SDS011;26146;51.114;5.654;2022-08-14T09:05:01;7.75;;;2.65;;
40433;SDS011;26146;51.114;5.654;2022-08-14T09:09:03;7.38;;;2.70;;
40433;SDS011;26146;51.114;5.654;2022-08-14T09:13:04;5.85;;;2.60;;
40433;SDS011;26146;51.114;5.654;2022-08-14T09:17:05;9.32;;;2.90;;
40433;SDS011;26146;51.114;5.654;2022-08-14T09:21:06;6.45;;;2.40;;
40433;SDS011;26146;51.114;5.654;2022-08-14T09:25:07;6.28;;;2.50;;
40433;SDS011;26146;51.114;5.654;2022-08-14T09:29:11;5.93;;;2.60;;
40433;SDS011;26146;51.114;5.654;2022-08-14T09:37:33;7.97;;;2.47;;
40433;SDS011;26146;51.114;5.654;2022-08-14T09:41:49;7.63;;;2.75;;
40433;SDS011;26146;51.114;5.654;2022-08-14T09:46:13;7.03;;;2.60;;
40433;SDS011;26146;51.114;5.654;2022-08-14T09:54:33;8.13;;;3.20;;
40433;SDS011;26146;51.114;5.654;2022-08-14T09:58:43;6.82;;;2.67;;
40433;SDS011;26146;51.114;5.654;2022-08-14T10:02:52;6.60;;;2.50;;
40433;SDS011;26146;51.114;5.654;2022-08-14T10:06:57;6.72;;;2.72;;
40433;SDS011;26146;51.114;5.654;2022-08-14T10:10:57;6.93;;;2.50;;
40433;SDS011;26146;51.114;5.654;2022-08-14T10:14:59;6.55;;;2.50;;
40433;SDS011;26146;51.114;5.654;2022-08-14T10:19:04;6.75;;;2.40;;
40433;SDS011;26146;51.114;5.654;2022-08-14T10:23:10;7.32;;;2.60;;
40433;SDS011;26146;51.114;5.654;2022-08-14T10:27:20;7.53;;;2.50;;
40433;SDS011;26146;51.114;5.654;2022-08-14T10:35:23;6.80;;;2.83;;
40433;SDS011;26146;51.114;5.654;2022-08-14T10:39:24;6.38;;;2.75;;
40433;SDS011;26146;51.114;5.654;2022-08-14T10:43:25;7.07;;;2.65;;
40433;SDS011;26146;51.114;5.654;2022-08-14T10:47:32;8.00;;;2.80;;
40433;SDS011;26146;51.114;5.654;2022-08-14T10:51:38;6.88;;;2.58;;
40433;SDS011;26146;51.114;5.654;2022-08-14T10:55:41;5.73;;;2.60;;
40433;SDS011;26146;51.114;5.654;2022-08-14T11:03:55;6.32;;;2.40;;
40433;SDS011;26146;51.114;5.654;2022-08-14T11:07:59;6.80;;;2.40;;
40433;SDS011;26146;51.114;5.654;2022-08-14T11:12:02;7.18;;;2.72;;
40433;SDS011;26146;51.114;5.654;2022-08-14T11:16:03;6.38;;;2.60;;
40433;SDS011;26146;51.114;5.654;2022-08-14T11:20:06;7.88;;;2.65;;
40433;SDS011;26146;51.114;5.654;2022-08-14T11:24:09;8.05;;;2.67;;
40433;SDS011;26146;51.114;5.654;2022-08-14T11:28:13;6.22;;;2.75;;
40433;SDS011;26146;51.114;5.654;2022-08-14T11:32:14;7.45;;;2.50;;
40433;SDS011;26146;51.114;5.654;2022-08-14T11:36:22;7.65;;;2.47;;
40433;SDS011;26146;51.114;5.654;2022-08-14T11:40:28;7.05;;;2.45;;
40433;SDS011;26146;51.114;5.654;2022-08-14T11:44:34;6.95;;;2.40;;
40433;SDS011;26146;51.114;5.654;2022-08-14T11:48:46;9.57;;;2.63;;
40433;SDS011;26146;51.114;5.654;2022-08-14T11:52:49;5.40;;;2.05;;
40433;SDS011;26146;51.114;5.654;2022-08-14T11:56:56;6.95;;;1.80;;
40433;SDS011;26146;51.114;5.654;2022-08-14T12:01:00;6.45;;;2.20;;
40433;SDS011;26146;51.114;5.654;2022-08-14T12:05:03;5.45;;;2.13;;
40433;SDS011;26146;51.114;5.654;2022-08-14T12:09:06;6.30;;;2.17;;
40433;SDS011;26146;51.114;5.654;2022-08-14T12:13:14;5.78;;;2.35;;
40433;SDS011;26146;51.114;5.654;2022-08-14T12:17:18;5.68;;;2.10;;
40433;SDS011;26146;51.114;5.654;2022-08-14T12:21:22;6.90;;;2.25;;
40433;SDS011;26146;51.114;5.654;2022-08-14T12:25:25;7.40;;;2.40;;
40433;SDS011;26146;51.114;5.654;2022-08-14T12:29:26;5.95;;;2.40;;
40433;SDS011;26146;51.114;5.654;2022-08-14T12:33:30;5.72;;;2.22;;
40433;SDS011;26146;51.114;5.654;2022-08-14T12:41:40;6.55;;;2.30;;
40433;SDS011;26146;51.114;5.654;2022-08-14T12:45:54;5.53;;;2.00;;
40433;SDS011;26146;51.114;5.654;2022-08-14T12:49:58;6.78;;;1.92;;
40433;SDS011;26146;51.114;5.654;2022-08-14T12:53:59;5.38;;;1.90;;
40433;SDS011;26146;51.114;5.654;2022-08-14T12:58:14;5.60;;;2.08;;
40433;SDS011;26146;51.114;5.654;2022-08-14T13:02:23;5.47;;;2.05;;
40433;SDS011;26146;51.114;5.654;2022-08-14T13:06:25;4.87;;;2.00;;
40433;SDS011;26146;51.114;5.654;2022-08-14T13:10:31;6.28;;;2.20;;
40433;SDS011;26146;51.114;5.654;2022-08-14T13:14:34;6.15;;;2.05;;
40433;SDS011;26146;51.114;5.654;2022-08-14T13:18:39;6.05;;;2.15;;
40433;SDS011;26146;51.114;5.654;2022-08-14T13:22:42;5.00;;;2.00;;
40433;SDS011;26146;51.114;5.654;2022-08-14T13:26:47;6.93;;;2.03;;
40433;SDS011;26146;51.114;5.654;2022-08-14T13:30:55;6.20;;;2.15;;
40433;SDS011;26146;51.114;5.654;2022-08-14T13:34:59;5.20;;;2.00;;
40433;SDS011;26146;51.114;5.654;2022-08-14T13:39:00;5.63;;;2.10;;
40433;SDS011;26146;51.114;5.654;2022-08-14T13:43:04;5.45;;;2.10;;
40433;SDS011;26146;51.114;5.654;2022-08-14T13:47:10;5.55;;;2.15;;
40433;SDS011;26146;51.114;5.654;2022-08-14T13:51:16;7.63;;;2.08;;
40433;SDS011;26146;51.114;5.654;2022-08-14T13:55:17;5.10;;;1.80;;
40433;SDS011;26146;51.114;5.654;2022-08-14T13:59:28;5.65;;;1.90;;
40433;SDS011;26146;51.114;5.654;2022-08-14T14:03:34;5.53;;;2.00;;
40433;SDS011;26146;51.114;5.654;2022-08-14T14:07:43;6.75;;;2.00;;
40433;SDS011;26146;51.114;5.654;2022-08-14T14:11:47;5.60;;;2.30;;
40433;SDS011;26146;51.114;5.654;2022-08-14T14:15:53;6.97;;;2.30;;
40433;SDS011;26146;51.114;5.654;2022-08-14T14:19:56;5.88;;;2.20;;
40433;SDS011;26146;51.114;5.654;2022-08-14T14:23:59;6.50;;;2.25;;
40433;SDS011;26146;51.114;5.654;2022-08-14T14:28:01;5.38;;;2.10;;
40433;SDS011;26146;51.114;5.654;2022-08-14T14:32:04;6.45;;;2.00;;
40433;SDS011;26146;51.114;5.654;2022-08-14T14:36:08;5.35;;;2.10;;
40433;SDS011;26146;51.114;5.654;2022-08-14T14:40:15;5.97;;;2.15;;
40433;SDS011;26146;51.114;5.654;2022-08-14T14:44:20;6.03;;;2.20;;
40433;SDS011;26146;51.114;5.654;2022-08-14T14:48:33;6.85;;;2.10;;
40433;SDS011;26146;51.114;5.654;2022-08-14T14:52:37;5.00;;;2.03;;
40433;SDS011;26146;51.114;5.654;2022-08-14T14:56:42;5.97;;;2.30;;
40433;SDS011;26146;51.114;5.654;2022-08-14T15:00:43;6.10;;;2.20;;
40433;SDS011;26146;51.114;5.654;2022-08-14T15:04:45;5.38;;;2.10;;
40433;SDS011;26146;51.114;5.654;2022-08-14T15:08:47;6.60;;;2.10;;
40433;SDS011;26146;51.114;5.654;2022-08-14T15:12:50;5.53;;;2.10;;
40433;SDS011;26146;51.114;5.654;2022-08-14T15:16:51;5.65;;;2.20;;
40433;SDS011;26146;51.114;5.654;2022-08-14T15:20:54;5.80;;;2.38;;
40433;SDS011;26146;51.114;5.654;2022-08-14T15:25:09;6.40;;;2.40;;
40433;SDS011;26146;51.114;5.654;2022-08-14T15:29:13;7.05;;;2.70;;
40433;SDS011;26146;51.114;5.654;2022-08-14T15:33:14;7.00;;;2.15;;
40433;SDS011;26146;51.114;5.654;2022-08-14T15:37:38;5.80;;;2.00;;
40433;SDS011;26146;51.114;5.654;2022-08-14T15:41:41;5.15;;;2.00;;
40433;SDS011;26146;51.114;5.654;2022-08-14T15:45:45;5.65;;;2.00;;
40433;SDS011;26146;51.114;5.654;2022-08-14T15:49:46;5.38;;;2.10;;
40433;SDS011;26146;51.114;5.654;2022-08-14T15:53:47;6.20;;;2.53;;
40433;SDS011;26146;51.114;5.654;2022-08-14T15:57:51;13.63;;;7.18;;
40433;SDS011;26146;51.114;5.654;2022-08-14T16:01:57;7.13;;;2.10;;
40433;SDS011;26146;51.114;5.654;2022-08-14T16:05:58;5.30;;;2.20;;
40433;SDS011;26146;51.114;5.654;2022-08-14T16:09:59;5.80;;;2.10;;
40433;SDS011;26146;51.114;5.654;2022-08-14T16:14:02;6.85;;;2.10;;
40433;SDS011;26146;51.114;5.654;2022-08-14T16:18:03;5.43;;;2.20;;
40433;SDS011;26146;51.114;5.654;2022-08-14T16:22:10;6.45;;;2.00;;
40433;SDS011;26146;51.114;5.654;2022-08-14T16:26:16;6.07;;;2.20;;
40433;SDS011;26146;51.114;5.654;2022-08-14T16:30:19;6.85;;;2.20;;
40433;SDS011;26146;51.114;5.654;2022-08-14T16:34:23;5.65;;;2.28;;
40433;SDS011;26146;51.114;5.654;2022-08-14T16:38:23;5.95;;;2.35;;
40433;SDS011;26146;51.114;5.654;2022-08-14T16:42:31;6.38;;;2.30;;
40433;SDS011;26146;51.114;5.654;2022-08-14T16:46:36;6.90;;;2.10;;
40433;SDS011;26146;51.114;5.654;2022-08-14T16:50:39;7.28;;;2.47;;
40433;SDS011;26146;51.114;5.654;2022-08-14T16:54:47;7.53;;;2.30;;
40433;SDS011;26146;51.114;5.654;2022-08-14T16:58:48;6.40;;;2.30;;
40433;SDS011;26146;51.114;5.654;2022-08-14T17:02:50;6.45;;;2.20;;
40433;SDS011;26146;51.114;5.654;2022-08-14T17:07:09;5.82;;;2.25;;
40433;SDS011;26146;51.114;5.654;2022-08-14T17:11:11;6.25;;;2.50;;
40433;SDS011;26146;51.114;5.654;2022-08-14T17:15:14;6.72;;;2.20;;
40433;SDS011;26146;51.114;5.654;2022-08-14T17:19:15;7.85;;;2.50;;
40433;SDS011;26146;51.114;5.654;2022-08-14T17:23:20;6.03;;;2.22;;
40433;SDS011;26146;51.114;5.654;2022-08-14T17:27:21;6.72;;;2.50;;
40433;SDS011;26146;51.114;5.654;2022-08-14T17:31:29;7.05;;;2.50;;
40433;SDS011;26146;51.114;5.654;2022-08-14T17:35:31;6.95;;;2.30;;
40433;SDS011;26146;51.114;5.654;2022-08-14T17:39:33;5.93;;;2.55;;
40433;SDS011;26146;51.114;5.654;2022-08-14T17:43:34;5.80;;;2.30;;
40433;SDS011;26146;51.114;5.654;2022-08-14T17:47:41;5.88;;;2.20;;
40433;SDS011;26146;51.114;5.654;2022-08-14T17:51:57;6.15;;;2.50;;
40433;SDS011;26146;51.114;5.654;2022-08-14T17:56:02;5.90;;;2.15;;
40433;SDS011;26146;51.114;5.654;2022-08-14T18:00:04;7.10;;;2.50;;
40433;SDS011;26146;51.114;5.654;2022-08-14T18:04:12;8.25;;;2.45;;
40433;SDS011;26146;51.114;5.654;2022-08-14T18:08:17;6.55;;;2.50;;
40433;SDS011;26146;51.114;5.654;2022-08-14T18:12:19;7.15;;;2.40;;
40433;SDS011;26146;51.114;5.654;2022-08-14T18:16:23;7.50;;;2.50;;
40433;SDS011;26146;51.114;5.654;2022-08-14T18:20:29;5.50;;;2.30;;
40433;SDS011;26146;51.114;5.654;2022-08-14T18:24:31;5.53;;;2.40;;
40433;SDS011;26146;51.114;5.654;2022-08-14T18:28:34;14.45;;;2.83;;
40433;SDS011;26146;51.114;5.654;2022-08-14T18:32:45;12.07;;;2.83;;
40433;SDS011;26146;51.114;5.654;2022-08-14T18:36:51;17.67;;;2.80;;
40433;SDS011;26146;51.114;5.654;2022-08-14T18:40:56;7.05;;;2.78;;
40433;SDS011;26146;51.114;5.654;2022-08-14T18:45:29;6.85;;;2.70;;
40433;SDS011;26146;51.114;5.654;2022-08-14T18:53:58;8.20;;;2.67;;
40433;SDS011;26146;51.114;5.654;2022-08-14T19:06:34;8.25;;;2.90;;
40433;SDS011;26146;51.114;5.654;2022-08-14T19:10:45;7.90;;;2.67;;
40433;SDS011;26146;51.114;5.654;2022-08-14T19:14:47;9.00;;;2.80;;
40433;SDS011;26146;51.114;5.654;2022-08-14T19:22:53;7.70;;;2.65;;
40433;SDS011;26146;51.114;5.654;2022-08-14T19:27:14;6.45;;;2.90;;
40433;SDS011;26146;51.114;5.654;2022-08-14T19:39:48;9.30;;;2.92;;
40433;SDS011;26146;51.114;5.654;2022-08-14T19:44:06;8.65;;;3.42;;
40433;SDS011;26146;51.114;5.654;2022-08-14T19:48:11;7.63;;;3.20;;
40433;SDS011;26146;51.114;5.654;2022-08-14T19:52:23;7.80;;;3.20;;
40433;SDS011;26146;51.114;5.654;2022-08-14T19:56:32;8.45;;;3.10;;
40433;SDS011;26146;51.114;5.654;2022-08-14T20:00:37;8.25;;;3.10;;
40433;SDS011;26146;51.114;5.654;2022-08-14T20:04:38;9.35;;;3.50;;
40433;SDS011;26146;51.114;5.654;2022-08-14T20:08:40;13.27;;;3.40;;
40433;SDS011;26146;51.114;5.654;2022-08-14T20:12:41;10.30;;;3.50;;
40433;SDS011;26146;51.114;5.654;2022-08-14T20:16:49;8.48;;;3.75;;
40433;SDS011;26146;51.114;5.654;2022-08-14T20:20:52;10.18;;;3.40;;
40433;SDS011;26146;51.114;5.654;2022-08-14T20:24:55;9.85;;;3.47;;
40433;SDS011;26146;51.114;5.654;2022-08-14T20:29:22;11.23;;;4.40;;
40433;SDS011;26146;51.114;5.654;2022-08-14T20:33:28;8.88;;;3.70;;
40433;SDS011;26146;51.114;5.654;2022-08-14T20:37:29;9.68;;;3.63;;
40433;SDS011;26146;51.114;5.654;2022-08-14T20:41:35;7.53;;;3.35;;
40433;SDS011;26146;51.114;5.654;2022-08-14T20:45:44;10.05;;;3.60;;
40433;SDS011;26146;51.114;5.654;2022-08-14T20:49:47;8.63;;;3.85;;
40433;SDS011;26146;51.114;5.654;2022-08-14T20:53:55;8.38;;;3.30;;
40433;SDS011;26146;51.114;5.654;2022-08-14T20:57:58;8.20;;;3.50;;
40433;SDS011;26146;51.114;5.654;2022-08-14T21:06:37;10.38;;;4.35;;
40433;SDS011;26146;51.114;5.654;2022-08-14T21:10:44;7.13;;;3.58;;
40433;SDS011;26146;51.114;5.654;2022-08-14T21:14:47;8.88;;;3.55;;
40433;SDS011;26146;51.114;5.654;2022-08-14T21:18:48;9.07;;;3.45;;
40433;SDS011;26146;51.114;5.654;2022-08-14T21:22:53;8.48;;;3.75;;
40433;SDS011;26146;51.114;5.654;2022-08-14T21:26:56;7.63;;;3.70;;
40433;SDS011;26146;51.114;5.654;2022-08-14T21:30:59;7.27;;;3.60;;
40433;SDS011;26146;51.114;5.654;2022-08-14T21:35:06;10.57;;;4.00;;
40433;SDS011;26146;51.114;5.654;2022-08-14T21:39:09;10.40;;;3.92;;
40433;SDS011;26146;51.114;5.654;2022-08-14T21:43:22;8.60;;;3.60;;
40433;SDS011;26146;51.114;5.654;2022-08-14T21:47:25;11.43;;;3.83;;
40433;SDS011;26146;51.114;5.654;2022-08-14T21:51:25;8.75;;;3.83;;
40433;SDS011;26146;51.114;5.654;2022-08-14T21:55:26;7.38;;;3.92;;
40433;SDS011;26146;51.114;5.654;2022-08-14T21:59:29;10.15;;;4.00;;
40433;SDS011;26146;51.114;5.654;2022-08-14T22:03:32;14.30;;;4.07;;
40433;SDS011;26146;51.114;5.654;2022-08-14T22:07:33;8.13;;;4.05;;
40433;SDS011;26146;51.114;5.654;2022-08-14T22:11:36;8.18;;;4.07;;
40433;SDS011;26146;51.114;5.654;2022-08-14T22:15:37;9.18;;;4.13;;
40433;SDS011;26146;51.114;5.654;2022-08-14T22:19:40;10.35;;;5.03;;
40433;SDS011;26146;51.114;5.654;2022-08-14T22:23:41;9.23;;;4.57;;
40433;SDS011;26146;51.114;5.654;2022-08-14T22:27:42;10.85;;;5.00;;
40433;SDS011;26146;51.114;5.654;2022-08-14T22:31:43;11.25;;;4.43;;
40433;SDS011;26146;51.114;5.654;2022-08-14T22:35:47;10.80;;;4.82;;
40433;SDS011;26146;51.114;5.654;2022-08-14T22:39:48;9.20;;;4.70;;
40433;SDS011;26146;51.114;5.654;2022-08-14T22:43:49;10.02;;;4.68;;
40433;SDS011;26146;51.114;5.654;2022-08-14T22:47:54;10.13;;;4.78;;
40433;SDS011;26146;51.114;5.654;2022-08-14T22:51:55;11.50;;;4.60;;
40433;SDS011;26146;51.114;5.654;2022-08-14T22:55:56;7.95;;;3.60;;
40433;SDS011;26146;51.114;5.654;2022-08-14T22:59:58;11.30;;;3.63;;
40433;SDS011;26146;51.114;5.654;2022-08-14T23:03:59;9.35;;;3.53;;
40433;SDS011;26146;51.114;5.654;2022-08-14T23:08:00;8.82;;;3.13;;
40433;SDS011;26146;51.114;5.654;2022-08-14T23:12:01;11.52;;;3.10;;
40433;SDS011;26146;51.114;5.654;2022-08-14T23:16:02;9.18;;;2.50;;
40433;SDS011;26146;51.114;5.654;2022-08-14T23:20:03;8.07;;;2.50;;
40433;SDS011;26146;51.114;5.654;2022-08-14T23:24:05;6.10;;;1.90;;
40433;SDS011;26146;51.114;5.654;2022-08-14T23:28:06;8.60;;;2.20;;
40433;SDS011;26146;51.114;5.654;2022-08-14T23:32:07;6.10;;;1.90;;
40433;SDS011;26146;51.114;5.654;2022-08-14T23:36:10;7.68;;;1.80;;
40433;SDS011;26146;51.114;5.654;2022-08-14T23:40:14;5.80;;;1.70;;
40433;SDS011;26146;51.114;5.654;2022-08-14T23:44:16;6.30;;;2.00;;
40433;SDS011;26146;51.114;5.654;2022-08-14T23:48:19;8.73;;;2.20;;
40433;SDS011;26146;51.114;5.654;2022-08-14T23:52:20;9.23;;;2.20;;
40433;SDS011;26146;51.114;5.654;2022-08-14T23:56:24;7.45;;;1.90;;
